createdAt,value
2023-05-13T00:08:13.621Z,16.97
2023-05-13T00:18:15.235Z,16.07
2023-05-13T00:28:17.008Z,16.25
2023-05-13T00:38:18.478Z,16.87
2023-05-13T00:48:20.218Z,17.63
2023-05-13T00:58:21.802Z,19.48
2023-05-13T01:08:56.984Z,17.07
2023-05-13T01:19:20.051Z,17.97
2023-05-13T01:29:21.681Z,21.20
2023-05-13T01:39:24.925Z,20.45
2023-05-13T01:49:26.806Z,19.17
2023-05-13T01:59:29.161Z,20.00
2023-05-13T02:09:30.554Z,18.85
2023-05-13T02:19:31.999Z,20.07
2023-05-13T02:29:34.506Z,18.20
2023-05-13T02:39:36.011Z,18.05
2023-05-13T02:49:37.455Z,18.53
2023-05-13T02:59:38.864Z,20.27
2023-05-13T03:09:42.136Z,21.23
2023-05-13T03:19:43.502Z,17.17
2023-05-13T03:29:44.870Z,20.80
2023-05-13T03:39:46.431Z,20.30
2023-05-13T03:49:48.811Z,20.60
2023-05-13T03:59:50.248Z,19.90
2023-05-13T04:09:51.616Z,22.27
2023-05-13T04:19:53.298Z,20.00
2023-05-13T04:29:54.688Z,18.97
2023-05-13T04:39:56.069Z,21.23
2023-05-13T04:49:57.604Z,21.15
2023-05-13T04:59:59.499Z,21.15
2023-05-13T05:10:00.928Z,21.67
2023-05-13T05:20:02.438Z,21.33
2023-05-13T05:30:04.683Z,20.00
2023-05-13T05:40:06.752Z,21.67
2023-05-13T05:50:08.605Z,19.47
2023-05-13T06:00:10.531Z,19.77
2023-05-13T06:10:12.120Z,18.03
2023-05-13T06:20:13.594Z,15.13
2023-05-13T06:30:16.324Z,14.57
2023-05-13T06:40:17.672Z,15.40
2023-05-13T06:50:19.898Z,13.07
2023-05-13T07:00:22.139Z,12.43
2023-05-13T07:10:23.931Z,14.05
2023-05-13T07:20:26.691Z,12.40
2023-05-13T07:30:28.236Z,13.37
2023-05-13T07:40:29.630Z,12.27
2023-05-13T07:50:31.984Z,11.93
2023-05-13T08:00:33.424Z,11.70
2023-05-13T08:10:34.760Z,11.23
2023-05-13T08:20:36.168Z,11.35
2023-05-13T08:30:40.592Z,11.87
2023-05-13T08:40:42.653Z,13.40
2023-05-13T08:50:44.906Z,18.17
2023-05-13T09:00:48.378Z,11.70
2023-05-13T09:10:50.341Z,9.87
2023-05-13T09:20:51.885Z,8.57
2023-05-13T09:30:56.827Z,9.57
2023-05-13T09:41:00.793Z,10.20
2023-05-13T09:51:02.362Z,8.07
2023-05-13T10:01:04.831Z,8.10
2023-05-13T10:11:07.960Z,8.17
2023-05-13T10:21:09.372Z,8.73
2023-05-13T10:31:10.742Z,8.63
2023-05-13T10:41:58.978Z,7.30
2023-05-13T10:52:14.154Z,8.40
2023-05-13T11:02:23.025Z,7.95
2023-05-13T11:12:24.555Z,7.20
2023-05-13T11:22:26.129Z,8.30
2023-05-13T11:32:53.839Z,8.50
2023-05-13T11:42:55.806Z,8.85
2023-05-13T11:52:59.181Z,7.43
2023-05-13T12:03:03.285Z,8.40
2023-05-13T12:13:04.998Z,7.82
2023-05-13T12:23:06.541Z,7.43
2023-05-13T12:33:16.124Z,6.77
2023-05-13T12:43:19.536Z,5.93
2023-05-13T12:53:21.200Z,7.53
2023-05-13T13:03:24.620Z,7.27
2023-05-13T13:13:26.957Z,7.72
2023-05-13T13:23:28.452Z,6.20
2023-05-13T13:33:29.964Z,10.90
2023-05-13T13:43:31.448Z,6.70
2023-05-13T13:53:32.948Z,8.02
2023-05-13T14:03:34.362Z,7.30
2023-05-13T14:13:35.986Z,6.60
2023-05-13T14:23:38.484Z,7.15
2023-05-13T14:33:39.851Z,7.20
2023-05-13T14:43:41.316Z,7.40
2023-05-13T14:53:42.871Z,7.57
2023-05-13T15:03:44.414Z,7.53
2023-05-13T15:13:45.884Z,7.97
2023-05-13T15:23:47.419Z,7.30
2023-05-13T15:33:48.759Z,5.53
2023-05-13T15:43:50.343Z,8.70
2023-05-13T15:53:52.865Z,7.03
2023-05-13T16:03:54.450Z,7.88
2023-05-13T16:13:55.995Z,6.87
2023-05-13T16:23:57.576Z,5.67
2023-05-13T16:33:59.048Z,7.40
2023-05-13T16:44:00.560Z,5.80
2023-05-13T16:54:02.046Z,6.50
2023-05-13T17:04:03.593Z,8.67
2023-05-13T17:14:05.943Z,6.30
2023-05-13T17:24:07.545Z,6.37
2023-05-13T17:34:09.203Z,7.57
2023-05-13T17:44:10.658Z,6.13
2023-05-13T17:54:12.073Z,5.60
2023-05-13T18:04:13.554Z,6.13
2023-05-13T18:14:14.968Z,7.07
2023-05-13T18:24:16.478Z,7.73
2023-05-13T18:34:18.365Z,7.03
2023-05-13T18:44:19.942Z,10.00
2023-05-13T18:54:21.506Z,8.50
2023-05-13T19:04:23.196Z,9.47
2023-05-13T19:14:24.743Z,8.30
2023-05-13T19:24:26.252Z,11.70
2023-05-13T19:34:27.755Z,12.83
2023-05-13T19:44:29.533Z,12.23
2023-05-13T19:54:31.032Z,9.77
2023-05-13T20:04:32.609Z,13.80
2023-05-13T20:14:48.064Z,12.97
2023-05-13T20:24:51.039Z,13.73
2023-05-13T20:34:52.766Z,13.75
2023-05-13T20:44:54.242Z,12.83
2023-05-13T20:54:55.828Z,14.00
2023-05-13T21:04:57.187Z,14.60
2023-05-13T21:14:58.644Z,14.13
2023-05-13T21:25:00.018Z,15.73
2023-05-13T21:35:01.393Z,15.48
2023-05-13T21:45:03.534Z,15.60
2023-05-13T21:55:05.343Z,14.47
2023-05-13T22:05:06.992Z,14.80
2023-05-13T22:15:09.212Z,15.27
2023-05-13T22:25:10.654Z,14.87
2023-05-13T22:35:12.138Z,16.40
2023-05-13T22:45:13.588Z,15.88
2023-05-13T22:55:15.130Z,12.93
2023-05-13T23:05:16.691Z,14.17
2023-05-13T23:15:18.161Z,15.20
2023-05-13T23:25:19.728Z,14.52
2023-05-13T23:35:21.080Z,14.43
2023-05-13T23:45:22.464Z,13.70
2023-05-13T23:55:23.996Z,14.27
